sensor_id;sensor_type;location;lat;lon;timestamp;pressure;altitude;pressure_sealevel;temperature;humidity
50464;BME280;62167;38.552;-121.478;2022-12-18T00:00:20;101724.16;;;11.94;53.17
50464;BME280;62167;38.552;-121.478;2022-12-18T00:02:46;101728.75;;;11.84;53.57
50464;BME280;62167;38.552;-121.478;2022-12-18T00:05:12;101725.38;;;11.82;54.12
50464;BME280;62167;38.552;-121.478;2022-12-18T00:07:38;101711.97;;;11.80;53.62
50464;BME280;62167;38.552;-121.478;2022-12-18T00:10:04;101719.81;;;11.74;54.16
50464;BME280;62167;38.552;-121.478;2022-12-18T00:12:30;101716.31;;;11.63;55.24
50464;BME280;62167;38.552;-121.478;2022-12-18T00:14:56;101716.75;;;11.59;55.53
50464;BME280;62167;38.552;-121.478;2022-12-18T00:17:22;101714.66;;;11.53;55.30
50464;BME280;62167;38.552;-121.478;2022-12-18T00:19:47;101717.38;;;11.43;56.03
50464;BME280;62167;38.552;-121.478;2022-12-18T00:22:13;101716.28;;;11.36;55.37
50464;BME280;62167;38.552;-121.478;2022-12-18T00:24:39;101716.72;;;11.31;55.83
50464;BME280;62167;38.552;-121.478;2022-12-18T00:27:05;101713.47;;;11.18;56.42
50464;BME280;62167;38.552;-121.478;2022-12-18T00:29:31;101719.28;;;11.13;56.40
50464;BME280;62167;38.552;-121.478;2022-12-18T00:31:57;101710.78;;;11.08;56.25
50464;BME280;62167;38.552;-121.478;2022-12-18T00:34:22;101711.38;;;11.02;57.01
50464;BME280;62167;38.552;-121.478;2022-12-18T00:36:48;101712.81;;;10.97;57.79
50464;BME280;62167;38.552;-121.478;2022-12-18T00:39:14;101716.09;;;10.90;57.69
50464;BME280;62167;38.552;-121.478;2022-12-18T00:41:40;101707.28;;;10.79;58.61
50464;BME280;62167;38.552;-121.478;2022-12-18T00:44:41;101699.19;;;10.69;58.15
50464;BME280;62167;38.552;-121.478;2022-12-18T00:47:07;101703.03;;;10.57;58.23
50464;BME280;62167;38.552;-121.478;2022-12-18T00:49:33;101704.03;;;10.46;59.66
50464;BME280;62167;38.552;-121.478;2022-12-18T00:51:59;101711.09;;;10.37;59.55
50464;BME280;62167;38.552;-121.478;2022-12-18T00:54:25;101706.22;;;10.22;59.38
50464;BME280;62167;38.552;-121.478;2022-12-18T00:56:50;101711.16;;;10.07;60.09
50464;BME280;62167;38.552;-121.478;2022-12-18T00:59:17;101705.47;;;10.00;61.12
50464;BME280;62167;38.552;-121.478;2022-12-18T01:01:43;101710.38;;;9.85;62.14
50464;BME280;62167;38.552;-121.478;2022-12-18T01:04:09;101713.34;;;9.82;61.39
50464;BME280;62167;38.552;-121.478;2022-12-18T01:06:35;101708.66;;;9.75;62.35
50464;BME280;62167;38.552;-121.478;2022-12-18T01:09:02;101710.59;;;9.63;62.27
50464;BME280;62167;38.552;-121.478;2022-12-18T01:11:28;101704.88;;;9.56;62.13
50464;BME280;62167;38.552;-121.478;2022-12-18T01:13:54;101694.94;;;9.47;62.59
50464;BME280;62167;38.552;-121.478;2022-12-18T01:16:20;101691.22;;;9.39;62.75
50464;BME280;62167;38.552;-121.478;2022-12-18T01:18:46;101689.94;;;9.33;62.93
50464;BME280;62167;38.552;-121.478;2022-12-18T01:21:14;101692.69;;;9.22;62.76
50464;BME280;62167;38.552;-121.478;2022-12-18T01:23:40;101696.19;;;9.13;63.23
50464;BME280;62167;38.552;-121.478;2022-12-18T01:26:07;101691.59;;;9.03;63.67
50464;BME280;62167;38.552;-121.478;2022-12-18T01:28:33;101696.91;;;8.94;64.12
50464;BME280;62167;38.552;-121.478;2022-12-18T01:31:08;101692.91;;;8.88;64.05
50464;BME280;62167;38.552;-121.478;2022-12-18T01:33:34;101694.41;;;8.81;64.76
50464;BME280;62167;38.552;-121.478;2022-12-18T01:36:03;101691.38;;;8.74;64.54
50464;BME280;62167;38.552;-121.478;2022-12-18T01:38:29;101682.16;;;8.67;64.69
50464;BME280;62167;38.552;-121.478;2022-12-18T01:40:59;101686.19;;;8.62;65.22
50464;BME280;62167;38.552;-121.478;2022-12-18T01:43:41;101686.13;;;8.52;65.04
50464;BME280;62167;38.552;-121.478;2022-12-18T01:46:07;101688.84;;;8.41;65.80
50464;BME280;62167;38.552;-121.478;2022-12-18T01:48:33;101685.31;;;8.29;65.73
50464;BME280;62167;38.552;-121.478;2022-12-18T01:50:59;101679.47;;;8.24;66.47
50464;BME280;62167;38.552;-121.478;2022-12-18T01:53:25;101679.25;;;8.16;66.65
50464;BME280;62167;38.552;-121.478;2022-12-18T01:55:55;101676.09;;;8.11;66.46
50464;BME280;62167;38.552;-121.478;2022-12-18T01:58:30;101680.50;;;8.00;67.13
50464;BME280;62167;38.552;-121.478;2022-12-18T02:00:58;101674.19;;;7.90;67.48
50464;BME280;62167;38.552;-121.478;2022-12-18T02:03:24;101667.75;;;7.82;67.71
50464;BME280;62167;38.552;-121.478;2022-12-18T02:05:57;101672.50;;;7.78;67.81
50464;BME280;62167;38.552;-121.478;2022-12-18T02:18:45;101673.50;;;7.43;69.08
50464;BME280;62167;38.552;-121.478;2022-12-18T02:26:53;101671.56;;;7.23;69.57
50464;BME280;62167;38.552;-121.478;2022-12-18T02:29:18;101676.41;;;7.18;69.97
50464;BME280;62167;38.552;-121.478;2022-12-18T02:31:49;101671.31;;;7.15;69.81
50464;BME280;62167;38.552;-121.478;2022-12-18T02:34:17;101669.84;;;7.11;70.30
50464;BME280;62167;38.552;-121.478;2022-12-18T02:36:44;101668.38;;;7.07;70.27
50464;BME280;62167;38.552;-121.478;2022-12-18T02:39:11;101679.44;;;7.02;70.33
50464;BME280;62167;38.552;-121.478;2022-12-18T02:41:38;101677.00;;;6.99;70.32
50464;BME280;62167;38.552;-121.478;2022-12-18T02:44:09;101668.59;;;6.92;70.83
50464;BME280;62167;38.552;-121.478;2022-12-18T02:46:45;101677.31;;;6.83;71.29
50464;BME280;62167;38.552;-121.478;2022-12-18T02:51:53;101674.50;;;6.73;71.44
50464;BME280;62167;38.552;-121.478;2022-12-18T02:54:36;101670.13;;;6.72;71.45
50464;BME280;62167;38.552;-121.478;2022-12-18T02:57:05;101672.16;;;6.69;71.76
50464;BME280;62167;38.552;-121.478;2022-12-18T02:59:47;101670.59;;;6.66;71.27
50464;BME280;62167;38.552;-121.478;2022-12-18T03:05:24;101679.78;;;6.51;72.34
50464;BME280;62167;38.552;-121.478;2022-12-18T03:10:19;101676.59;;;6.46;72.08
50464;BME280;62167;38.552;-121.478;2022-12-18T03:12:49;101677.41;;;6.35;72.39
50464;BME280;62167;38.552;-121.478;2022-12-18T03:15:28;101680.03;;;6.24;73.04
50464;BME280;62167;38.552;-121.478;2022-12-18T03:17:57;101684.75;;;6.20;73.33
50464;BME280;62167;38.552;-121.478;2022-12-18T03:20:25;101684.13;;;6.17;73.54
50464;BME280;62167;38.552;-121.478;2022-12-18T03:22:54;101689.47;;;6.17;73.36
50464;BME280;62167;38.552;-121.478;2022-12-18T03:25:21;101688.06;;;6.00;73.60
50464;BME280;62167;38.552;-121.478;2022-12-18T03:27:48;101695.22;;;6.00;73.95
50464;BME280;62167;38.552;-121.478;2022-12-18T03:30:15;101684.97;;;5.93;74.39
50464;BME280;62167;38.552;-121.478;2022-12-18T03:35:28;101681.00;;;5.86;75.15
50464;BME280;62167;38.552;-121.478;2022-12-18T03:37:55;101681.13;;;5.85;74.66
50464;BME280;62167;38.552;-121.478;2022-12-18T03:40:21;101688.16;;;5.86;74.41
50464;BME280;62167;38.552;-121.478;2022-12-18T03:42:52;101686.91;;;5.79;74.77
50464;BME280;62167;38.552;-121.478;2022-12-18T03:48:00;101696.84;;;5.77;74.57
50464;BME280;62167;38.552;-121.478;2022-12-18T03:55:34;101684.50;;;5.63;75.55
50464;BME280;62167;38.552;-121.478;2022-12-18T03:58:01;101691.75;;;5.61;74.96
50464;BME280;62167;38.552;-121.478;2022-12-18T04:00:29;101687.50;;;5.58;75.16
50464;BME280;62167;38.552;-121.478;2022-12-18T04:02:56;101691.47;;;5.53;75.48
50464;BME280;62167;38.552;-121.478;2022-12-18T04:05:23;101690.69;;;5.51;75.27
50464;BME280;62167;38.552;-121.478;2022-12-18T04:07:51;101693.50;;;5.49;75.93
50464;BME280;62167;38.552;-121.478;2022-12-18T04:10:18;101697.13;;;5.48;75.19
50464;BME280;62167;38.552;-121.478;2022-12-18T04:12:44;101686.75;;;5.43;76.35
50464;BME280;62167;38.552;-121.478;2022-12-18T04:15:10;101686.56;;;5.34;76.96
50464;BME280;62167;38.552;-121.478;2022-12-18T04:17:37;101685.78;;;5.32;76.90
50464;BME280;62167;38.552;-121.478;2022-12-18T04:20:03;101681.53;;;5.29;76.71
50464;BME280;62167;38.552;-121.478;2022-12-18T04:22:29;101682.38;;;5.30;75.80
50464;BME280;62167;38.552;-121.478;2022-12-18T04:24:55;101691.56;;;5.26;76.64
50464;BME280;62167;38.552;-121.478;2022-12-18T04:27:21;101691.34;;;5.16;76.52
50464;BME280;62167;38.552;-121.478;2022-12-18T04:29:47;101693.50;;;5.11;76.79
50464;BME280;62167;38.552;-121.478;2022-12-18T04:32:13;101685.72;;;5.08;77.50
50464;BME280;62167;38.552;-121.478;2022-12-18T04:34:39;101688.69;;;5.03;77.47
50464;BME280;62167;38.552;-121.478;2022-12-18T04:37:05;101690.53;;;5.03;77.68
50464;BME280;62167;38.552;-121.478;2022-12-18T04:39:31;101694.25;;;5.00;77.30
50464;BME280;62167;38.552;-121.478;2022-12-18T04:41:56;101695.41;;;4.96;77.17
50464;BME280;62167;38.552;-121.478;2022-12-18T04:44:22;101686.84;;;4.91;77.80
50464;BME280;62167;38.552;-121.478;2022-12-18T04:46:48;101693.28;;;4.88;77.78
50464;BME280;62167;38.552;-121.478;2022-12-18T04:49:15;101695.28;;;4.85;77.63
50464;BME280;62167;38.552;-121.478;2022-12-18T04:51:41;101697.97;;;4.85;77.51
50464;BME280;62167;38.552;-121.478;2022-12-18T04:54:06;101699.03;;;4.82;77.68
50464;BME280;62167;38.552;-121.478;2022-12-18T04:56:32;101704.56;;;4.79;77.67
50464;BME280;62167;38.552;-121.478;2022-12-18T04:58:58;101703.19;;;4.74;78.14
50464;BME280;62167;38.552;-121.478;2022-12-18T05:01:24;101702.63;;;4.68;78.56
50464;BME280;62167;38.552;-121.478;2022-12-18T05:03:50;101704.56;;;4.66;78.09
50464;BME280;62167;38.552;-121.478;2022-12-18T05:06:16;101707.53;;;4.62;77.89
50464;BME280;62167;38.552;-121.478;2022-12-18T05:08:42;101704.09;;;4.60;78.67
50464;BME280;62167;38.552;-121.478;2022-12-18T05:11:09;101704.41;;;4.55;78.86
50464;BME280;62167;38.552;-121.478;2022-12-18T05:13:35;101694.03;;;4.51;79.27
50464;BME280;62167;38.552;-121.478;2022-12-18T05:16:01;101692.44;;;4.48;79.46
50464;BME280;62167;38.552;-121.478;2022-12-18T05:18:27;101688.16;;;4.46;79.35
50464;BME280;62167;38.552;-121.478;2022-12-18T05:20:53;101692.00;;;4.41;78.87
50464;BME280;62167;38.552;-121.478;2022-12-18T05:23:19;101687.94;;;4.36;78.74
50464;BME280;62167;38.552;-121.478;2022-12-18T05:25:47;101691.75;;;4.32;77.95
50464;BME280;62167;38.552;-121.478;2022-12-18T05:28:13;101692.06;;;4.27;79.00
50464;BME280;62167;38.552;-121.478;2022-12-18T05:30:39;101681.47;;;4.26;79.20
50464;BME280;62167;38.552;-121.478;2022-12-18T05:33:05;101677.22;;;4.23;79.09
50464;BME280;62167;38.552;-121.478;2022-12-18T05:35:30;101685.63;;;4.17;79.34
50464;BME280;62167;38.552;-121.478;2022-12-18T05:37:56;101689.31;;;4.14;79.72
50464;BME280;62167;38.552;-121.478;2022-12-18T05:40:22;101693.25;;;4.09;79.35
50464;BME280;62167;38.552;-121.478;2022-12-18T05:42:48;101679.38;;;4.04;79.76
50464;BME280;62167;38.552;-121.478;2022-12-18T05:45:14;101683.97;;;4.02;80.25
50464;BME280;62167;38.552;-121.478;2022-12-18T05:47:40;101685.84;;;4.00;79.90
50464;BME280;62167;38.552;-121.478;2022-12-18T05:50:06;101691.41;;;3.97;80.51
50464;BME280;62167;38.552;-121.478;2022-12-18T05:52:32;101680.19;;;3.92;80.96
50464;BME280;62167;38.552;-121.478;2022-12-18T05:54:58;101681.03;;;3.92;80.79
50464;BME280;62167;38.552;-121.478;2022-12-18T05:57:24;101679.22;;;3.93;80.25
50464;BME280;62167;38.552;-121.478;2022-12-18T05:59:50;101679.31;;;3.91;80.67
50464;BME280;62167;38.552;-121.478;2022-12-18T06:02:16;101683.13;;;3.87;80.17
50464;BME280;62167;38.552;-121.478;2022-12-18T06:04:42;101687.69;;;3.85;81.41
50464;BME280;62167;38.552;-121.478;2022-12-18T06:07:07;101683.44;;;3.82;80.91
50464;BME280;62167;38.552;-121.478;2022-12-18T06:09:33;101681.81;;;3.80;80.30
50464;BME280;62167;38.552;-121.478;2022-12-18T06:11:59;101687.25;;;3.78;80.28
50464;BME280;62167;38.552;-121.478;2022-12-18T06:14:25;101689.06;;;3.78;80.94
50464;BME280;62167;38.552;-121.478;2022-12-18T06:16:51;101681.34;;;3.73;80.66
50464;BME280;62167;38.552;-121.478;2022-12-18T06:19:17;101689.44;;;3.72;80.34
50464;BME280;62167;38.552;-121.478;2022-12-18T06:21:43;101690.59;;;3.68;80.95
50464;BME280;62167;38.552;-121.478;2022-12-18T06:24:09;101683.66;;;3.65;80.58
50464;BME280;62167;38.552;-121.478;2022-12-18T06:26:36;101683.66;;;3.65;80.83
50464;BME280;62167;38.552;-121.478;2022-12-18T06:29:03;101678.69;;;3.59;80.70
50464;BME280;62167;38.552;-121.478;2022-12-18T06:31:28;101682.53;;;3.55;81.68
50464;BME280;62167;38.552;-121.478;2022-12-18T06:33:54;101675.56;;;3.52;81.22
50464;BME280;62167;38.552;-121.478;2022-12-18T06:36:20;101675.69;;;3.51;81.50
50464;BME280;62167;38.552;-121.478;2022-12-18T06:38:46;101681.09;;;3.49;81.90
50464;BME280;62167;38.552;-121.478;2022-12-18T06:41:16;101681.19;;;3.48;82.44
50464;BME280;62167;38.552;-121.478;2022-12-18T06:43:42;101681.38;;;3.45;81.38
50464;BME280;62167;38.552;-121.478;2022-12-18T06:46:08;101676.16;;;3.43;82.13
50464;BME280;62167;38.552;-121.478;2022-12-18T06:48:34;101679.88;;;3.41;81.44
50464;BME280;62167;38.552;-121.478;2022-12-18T06:51:01;101680.72;;;3.41;81.93
50464;BME280;62167;38.552;-121.478;2022-12-18T06:53:27;101678.06;;;3.41;81.00
50464;BME280;62167;38.552;-121.478;2022-12-18T06:55:59;101680.81;;;3.39;81.31
50464;BME280;62167;38.552;-121.478;2022-12-18T06:58:25;101689.19;;;3.33;81.97
50464;BME280;62167;38.552;-121.478;2022-12-18T07:00:52;101684.25;;;3.27;81.83
50464;BME280;62167;38.552;-121.478;2022-12-18T07:03:18;101682.53;;;3.26;81.65
50464;BME280;62167;38.552;-121.478;2022-12-18T07:05:44;101680.63;;;3.28;81.54
50464;BME280;62167;38.552;-121.478;2022-12-18T07:08:09;101679.59;;;3.31;81.94
50464;BME280;62167;38.552;-121.478;2022-12-18T07:10:42;101684.41;;;3.24;82.46
50464;BME280;62167;38.552;-121.478;2022-12-18T07:13:08;101685.38;;;3.23;82.08
50464;BME280;62167;38.552;-121.478;2022-12-18T07:15:33;101678.53;;;3.19;82.09
50464;BME280;62167;38.552;-121.478;2022-12-18T07:17:59;101683.00;;;3.19;81.50
50464;BME280;62167;38.552;-121.478;2022-12-18T07:20:25;101692.16;;;3.15;81.89
50464;BME280;62167;38.552;-121.478;2022-12-18T07:22:51;101699.47;;;3.11;82.19
50464;BME280;62167;38.552;-121.478;2022-12-18T07:25:17;101691.47;;;3.11;83.00
50464;BME280;62167;38.552;-121.478;2022-12-18T07:27:43;101711.22;;;3.07;83.24
50464;BME280;62167;38.552;-121.478;2022-12-18T07:30:09;101710.47;;;3.05;83.08
50464;BME280;62167;38.552;-121.478;2022-12-18T07:32:35;101708.75;;;3.04;82.74
50464;BME280;62167;38.552;-121.478;2022-12-18T07:35:01;101706.19;;;3.02;82.39
50464;BME280;62167;38.552;-121.478;2022-12-18T07:37:27;101708.94;;;3.01;83.12
50464;BME280;62167;38.552;-121.478;2022-12-18T07:39:52;101704.75;;;2.97;83.12
50464;BME280;62167;38.552;-121.478;2022-12-18T07:42:18;101701.06;;;2.99;82.83
50464;BME280;62167;38.552;-121.478;2022-12-18T07:44:56;101699.31;;;2.98;83.19
50464;BME280;62167;38.552;-121.478;2022-12-18T07:47:22;101702.19;;;2.95;82.66
50464;BME280;62167;38.552;-121.478;2022-12-18T07:49:48;101700.56;;;2.93;82.66
50464;BME280;62167;38.552;-121.478;2022-12-18T07:52:14;101695.22;;;2.93;82.81
50464;BME280;62167;38.552;-121.478;2022-12-18T07:54:40;101697.31;;;2.88;83.41
50464;BME280;62167;38.552;-121.478;2022-12-18T07:57:06;101695.72;;;2.85;83.58
50464;BME280;62167;38.552;-121.478;2022-12-18T07:59:32;101699.50;;;2.81;83.26
50464;BME280;62167;38.552;-121.478;2022-12-18T08:01:58;101694.44;;;2.76;83.54
50464;BME280;62167;38.552;-121.478;2022-12-18T08:04:24;101694.72;;;2.72;83.92
50464;BME280;62167;38.552;-121.478;2022-12-18T08:06:50;101697.22;;;2.75;83.37
50464;BME280;62167;38.552;-121.478;2022-12-18T08:09:16;101694.91;;;2.69;83.41
50464;BME280;62167;38.552;-121.478;2022-12-18T08:11:42;101686.06;;;2.68;83.49
50464;BME280;62167;38.552;-121.478;2022-12-18T08:14:08;101686.84;;;2.70;84.13
50464;BME280;62167;38.552;-121.478;2022-12-18T08:16:34;101684.19;;;2.70;84.15
50464;BME280;62167;38.552;-121.478;2022-12-18T08:19:00;101690.44;;;2.69;83.99
50464;BME280;62167;38.552;-121.478;2022-12-18T08:21:26;101691.56;;;2.65;83.24
50464;BME280;62167;38.552;-121.478;2022-12-18T08:23:53;101685.31;;;2.66;83.47
50464;BME280;62167;38.552;-121.478;2022-12-18T08:26:19;101689.66;;;2.67;83.41
50464;BME280;62167;38.552;-121.478;2022-12-18T08:28:45;101689.00;;;2.64;83.71
50464;BME280;62167;38.552;-121.478;2022-12-18T08:31:11;101691.16;;;2.57;84.01
50464;BME280;62167;38.552;-121.478;2022-12-18T08:33:37;101687.53;;;2.58;83.40
50464;BME280;62167;38.552;-121.478;2022-12-18T08:36:04;101687.66;;;2.56;83.48
50464;BME280;62167;38.552;-121.478;2022-12-18T08:38:31;101684.31;;;2.53;83.67
50464;BME280;62167;38.552;-121.478;2022-12-18T08:43:26;101682.00;;;2.47;83.78
50464;BME280;62167;38.552;-121.478;2022-12-18T08:46:10;101688.28;;;2.46;83.82
50464;BME280;62167;38.552;-121.478;2022-12-18T08:48:36;101690.19;;;2.44;84.74
50464;BME280;62167;38.552;-121.478;2022-12-18T08:51:02;101685.97;;;2.40;84.11
50464;BME280;62167;38.552;-121.478;2022-12-18T08:53:27;101683.50;;;2.37;83.96
50464;BME280;62167;38.552;-121.478;2022-12-18T08:55:55;101679.97;;;2.36;84.63
50464;BME280;62167;38.552;-121.478;2022-12-18T08:58:21;101682.75;;;2.34;83.93
50464;BME280;62167;38.552;-121.478;2022-12-18T09:00:47;101675.13;;;2.28;84.79
50464;BME280;62167;38.552;-121.478;2022-12-18T09:03:14;101673.38;;;2.27;84.62
50464;BME280;62167;38.552;-121.478;2022-12-18T09:05:40;101678.81;;;2.26;84.50
50464;BME280;62167;38.552;-121.478;2022-12-18T09:08:06;101676.41;;;2.21;84.37
50464;BME280;62167;38.552;-121.478;2022-12-18T09:10:32;101673.75;;;2.21;84.11
50464;BME280;62167;38.552;-121.478;2022-12-18T09:12:58;101673.66;;;2.23;84.43
50464;BME280;62167;38.552;-121.478;2022-12-18T09:15:24;101676.31;;;2.23;84.27
50464;BME280;62167;38.552;-121.478;2022-12-18T09:17:49;101666.72;;;2.20;84.80
50464;BME280;62167;38.552;-121.478;2022-12-18T09:20:16;101672.31;;;2.16;84.85
50464;BME280;62167;38.552;-121.478;2022-12-18T09:22:42;101677.97;;;2.10;85.51
50464;BME280;62167;38.552;-121.478;2022-12-18T09:25:07;101678.06;;;2.08;85.09
50464;BME280;62167;38.552;-121.478;2022-12-18T09:27:34;101682.50;;;2.07;85.32
50464;BME280;62167;38.552;-121.478;2022-12-18T09:30:00;101684.31;;;2.07;84.91
50464;BME280;62167;38.552;-121.478;2022-12-18T09:32:26;101687.16;;;2.04;84.61
50464;BME280;62167;38.552;-121.478;2022-12-18T09:34:52;101687.31;;;2.01;85.04
50464;BME280;62167;38.552;-121.478;2022-12-18T09:37:17;101690.66;;;2.04;85.07
50464;BME280;62167;38.552;-121.478;2022-12-18T09:39:43;101688.00;;;2.04;85.64
50464;BME280;62167;38.552;-121.478;2022-12-18T09:42:15;101697.00;;;2.02;85.60
50464;BME280;62167;38.552;-121.478;2022-12-18T09:44:48;101698.19;;;1.96;86.18
50464;BME280;62167;38.552;-121.478;2022-12-18T09:47:23;101696.84;;;1.89;86.31
50464;BME280;62167;38.552;-121.478;2022-12-18T09:49:52;101702.25;;;1.88;87.33
50464;BME280;62167;38.552;-121.478;2022-12-18T09:52:21;101703.19;;;1.87;87.39
50464;BME280;62167;38.552;-121.478;2022-12-18T09:54:57;101703.19;;;1.87;87.84
50464;BME280;62167;38.552;-121.478;2022-12-18T09:57:26;101706.63;;;1.89;86.91
50464;BME280;62167;38.552;-121.478;2022-12-18T09:59:57;101710.38;;;1.85;86.81
50464;BME280;62167;38.552;-121.478;2022-12-18T10:02:25;101705.22;;;1.81;86.73
50464;BME280;62167;38.552;-121.478;2022-12-18T10:05:05;101710.53;;;1.81;86.86
50464;BME280;62167;38.552;-121.478;2022-12-18T10:10:10;101715.00;;;1.81;86.93
50464;BME280;62167;38.552;-121.478;2022-12-18T10:25:31;101720.25;;;1.83;88.86
50464;BME280;62167;38.552;-121.478;2022-12-18T10:28:07;101716.47;;;1.87;88.91
50464;BME280;62167;38.552;-121.478;2022-12-18T10:30:33;101720.75;;;1.89;88.98
50464;BME280;62167;38.552;-121.478;2022-12-18T10:33:02;101714.00;;;1.84;89.47
50464;BME280;62167;38.552;-121.478;2022-12-18T10:35:28;101716.47;;;1.87;89.23
50464;BME280;62167;38.552;-121.478;2022-12-18T10:38:05;101719.81;;;1.90;89.13
50464;BME280;62167;38.552;-121.478;2022-12-18T10:40:31;101722.31;;;1.93;89.38
50464;BME280;62167;38.552;-121.478;2022-12-18T10:43:04;101719.72;;;1.92;89.22
50464;BME280;62167;38.552;-121.478;2022-12-18T10:45:30;101718.25;;;1.86;89.84
50464;BME280;62167;38.552;-121.478;2022-12-18T10:47:56;101712.19;;;1.84;90.06
50464;BME280;62167;38.552;-121.478;2022-12-18T10:50:28;101714.75;;;1.86;90.40
50464;BME280;62167;38.552;-121.478;2022-12-18T10:52:56;101715.69;;;1.85;90.13
50464;BME280;62167;38.552;-121.478;2022-12-18T10:55:22;101717.41;;;1.86;89.85
50464;BME280;62167;38.552;-121.478;2022-12-18T10:57:50;101722.03;;;1.82;90.08
50464;BME280;62167;38.552;-121.478;2022-12-18T11:00:21;101723.22;;;1.76;90.17
50464;BME280;62167;38.552;-121.478;2022-12-18T11:02:48;101730.59;;;1.71;90.11
50464;BME280;62167;38.552;-121.478;2022-12-18T11:05:30;101732.28;;;1.72;90.20
50464;BME280;62167;38.552;-121.478;2022-12-18T11:07:57;101728.53;;;1.76;90.13
50464;BME280;62167;38.552;-121.478;2022-12-18T11:10:25;101734.94;;;1.72;90.09
50464;BME280;62167;38.552;-121.478;2022-12-18T11:12:52;101735.22;;;1.68;90.65
50464;BME280;62167;38.552;-121.478;2022-12-18T11:15:21;101739.59;;;1.69;90.34
50464;BME280;62167;38.552;-121.478;2022-12-18T11:17:50;101737.00;;;1.67;90.30
50464;BME280;62167;38.552;-121.478;2022-12-18T11:22:54;101740.69;;;1.65;90.75
50464;BME280;62167;38.552;-121.478;2022-12-18T11:25:20;101735.38;;;1.65;90.56
50464;BME280;62167;38.552;-121.478;2022-12-18T11:27:53;101733.50;;;1.67;90.45
50464;BME280;62167;38.552;-121.478;2022-12-18T11:32:46;101725.09;;;1.59;90.60
50464;BME280;62167;38.552;-121.478;2022-12-18T11:35:16;101719.78;;;1.59;90.86
50464;BME280;62167;38.552;-121.478;2022-12-18T11:37:43;101713.44;;;1.61;90.43
50464;BME280;62167;38.552;-121.478;2022-12-18T11:40:22;101716.28;;;1.58;90.35
50464;BME280;62167;38.552;-121.478;2022-12-18T11:43:03;101717.19;;;1.57;90.38
50464;BME280;62167;38.552;-121.478;2022-12-18T11:45:35;101713.78;;;1.55;90.08
50464;BME280;62167;38.552;-121.478;2022-12-18T11:48:14;101713.16;;;1.50;90.47
50464;BME280;62167;38.552;-121.478;2022-12-18T11:50:55;101722.22;;;1.46;90.27
50464;BME280;62167;38.552;-121.478;2022-12-18T11:53:21;101719.66;;;1.44;89.90
50464;BME280;62167;38.552;-121.478;2022-12-18T11:58:32;101711.81;;;1.43;90.03
50464;BME280;62167;38.552;-121.478;2022-12-18T12:06:25;101716.03;;;1.29;89.78
50464;BME280;62167;38.552;-121.478;2022-12-18T12:11:55;101713.63;;;1.25;89.18
50464;BME280;62167;38.552;-121.478;2022-12-18T12:24:32;101720.78;;;1.07;88.62
50464;BME280;62167;38.552;-121.478;2022-12-18T12:30:20;101724.44;;;1.04;87.69
50464;BME280;62167;38.552;-121.478;2022-12-18T12:40:05;101729.22;;;0.98;88.14
50464;BME280;62167;38.552;-121.478;2022-12-18T12:42:38;101728.41;;;0.96;88.41
50464;BME280;62167;38.552;-121.478;2022-12-18T12:45:36;101722.19;;;0.97;87.95
50464;BME280;62167;38.552;-121.478;2022-12-18T12:48:02;101723.09;;;0.96;87.73
50464;BME280;62167;38.552;-121.478;2022-12-18T12:50:32;101725.94;;;0.93;88.31
50464;BME280;62167;38.552;-121.478;2022-12-18T12:52:59;101727.78;;;0.91;88.69
50464;BME280;62167;38.552;-121.478;2022-12-18T12:55:27;101741.28;;;0.86;88.53
50464;BME280;62167;38.552;-121.478;2022-12-18T13:00:19;101740.44;;;0.86;89.10
50464;BME280;62167;38.552;-121.478;2022-12-18T13:05:34;101751.97;;;0.85;88.88
50464;BME280;62167;38.552;-121.478;2022-12-18T13:08:06;101749.50;;;0.82;89.42
50464;BME280;62167;38.552;-121.478;2022-12-18T13:10:34;101740.66;;;0.81;89.54
50464;BME280;62167;38.552;-121.478;2022-12-18T13:13:01;101746.59;;;0.86;89.39
50464;BME280;62167;38.552;-121.478;2022-12-18T13:15:30;101742.16;;;0.87;89.13
50464;BME280;62167;38.552;-121.478;2022-12-18T13:18:05;101746.84;;;0.82;89.33
50464;BME280;62167;38.552;-121.478;2022-12-18T13:20:37;101747.84;;;0.79;89.77
50464;BME280;62167;38.552;-121.478;2022-12-18T13:23:23;101749.50;;;0.82;89.84
50464;BME280;62167;38.552;-121.478;2022-12-18T13:25:52;101757.53;;;0.80;90.47
50464;BME280;62167;38.552;-121.478;2022-12-18T13:30:59;101749.66;;;0.78;91.36
50464;BME280;62167;38.552;-121.478;2022-12-18T13:38:39;101757.69;;;0.77;91.62
50464;BME280;62167;38.552;-121.478;2022-12-18T13:43:43;101754.94;;;0.78;91.25
50464;BME280;62167;38.552;-121.478;2022-12-18T13:46:21;101761.09;;;0.79;91.33
50464;BME280;62167;38.552;-121.478;2022-12-18T13:48:57;101760.41;;;0.75;91.52
50464;BME280;62167;38.552;-121.478;2022-12-18T13:51:24;101771.00;;;0.75;90.95
50464;BME280;62167;38.552;-121.478;2022-12-18T13:53:52;101766.56;;;0.76;91.03
50464;BME280;62167;38.552;-121.478;2022-12-18T13:56:24;101771.00;;;0.75;90.84
50464;BME280;62167;38.552;-121.478;2022-12-18T13:59:08;101768.53;;;0.72;90.83
50464;BME280;62167;38.552;-121.478;2022-12-18T14:01:36;101776.47;;;0.72;91.18
50464;BME280;62167;38.552;-121.478;2022-12-18T14:04:10;101770.38;;;0.70;91.20
50464;BME280;62167;38.552;-121.478;2022-12-18T14:06:36;101768.03;;;0.64;90.82
50464;BME280;62167;38.552;-121.478;2022-12-18T14:09:02;101761.16;;;0.60;91.17
50464;BME280;62167;38.552;-121.478;2022-12-18T14:11:28;101762.03;;;0.61;90.98
50464;BME280;62167;38.552;-121.478;2022-12-18T14:13:55;101759.44;;;0.59;91.16
50464;BME280;62167;38.552;-121.478;2022-12-18T14:16:21;101755.09;;;0.58;90.98
50464;BME280;62167;38.552;-121.478;2022-12-18T14:23:45;101748.31;;;0.52;92.06